Terminal Aerodrome Forecast
Issued by NWS Cleveland, OH

Home | Current Version | Previous Version | Text Only | Print | Product List | Glossary On
Versions: 1 2 3 4 5 6 7 8 9 10 11 12 13 14 15 16 17 18 19 20 21 22 23 24 25
224
FTUS41 KCLE 222320
TAFCLE
TAF
KCLE 222320Z 2300/2406 20008KT P6SM OVC028
     FM230400 20008KT 6SM BR OVC020
     FM231000 20010KT 5SM BR OVC015
     FM231600 22012KT P6SM OVC015
     FM232100 28008KT P6SM OVC025
     FM240000 01006KT P6SM OVC015=

USA.gov is the U.S. government's official web portal to all federal, state and local government web resources and services.